Flight Track Log - Related Links

Times and Time Zones

All times are in EDT time to prevent confusion due to time zone crossing. See the SKW6225 flight status page for this flight to view local times or setup timezone preferences in your user account.

Time Position Orientation Groundspeed Altitude Reporting Facility
EDT Latitude Longitude Course Direction KTS MPH feet Rate Location/Type
Sun 05:08:00 PM 41.5511 -88.1029 197° South  Level FlightAware
Sun 05:09:00 PM 41.4423 -88.1464 197° South  Level FlightAware
Sun 05:10:00 PM 41.3340 -88.1913 201° Southwest  Level FlightAware
Sun 05:11:00 PM 41.2300 -88.2514 197° South  Level FlightAware
Sun 05:12:00 PM 41.1217 -88.2966 197° South  Level FlightAware
Sun 05:13:00 PM 41.0132 -88.3414 197° South  Level FlightAware
Sun 05:14:00 PM 40.9055 -88.3889 201° Southwest  Level FlightAware
Sun 05:15:00 PM 40.7984 -88.4388 198° South  Level FlightAware
Sun 05:16:00 PM 40.6904 -88.4851 198° South  Level FlightAware
Sun 05:17:00 PM 40.5839 -88.5364 205° Southwest  Level FlightAware
Sun 05:18:00 PM 40.4774 -88.5870 195° South  Level FlightAware
Sun 05:19:00 PM 40.3680 -88.6268 195° South  Level FlightAware
Sun 05:20:00 PM 40.2745 -88.7089 217° Southwest  Level FlightAware
Sun 05:21:00 PM 40.1843 -88.7992 217° Southwest  Level FlightAware
Sun 05:22:00 PM 40.0933 -88.8878 207° Southwest  Level FlightAware
Sun 05:23:00 PM 40.0044 -88.9767 229° Southwest  Level FlightAware
Sun 05:24:00 PM 39.9153 -89.0682 218° Southwest  Level FlightAware
Sun 05:25:00 PM 39.8251 -89.1582 217° Southwest  Level FlightAware
Sun 05:26:00 PM 39.7351 -89.2483 218° Southwest  Level FlightAware
Sun 05:27:00 PM 39.6451 -89.3384 218° Southwest  Level FlightAware
Sun 05:28:00 PM 39.5552 -89.4285 218° Southwest  Level FlightAware
Sun 05:29:00 PM 39.4653 -89.5184 218° Southwest  Level FlightAware
Sun 05:30:00 PM 39.3753 -89.6081 218° Southwest  Level FlightAware
Sun 05:31:00 PM 39.2856 -89.6982 218° Southwest  Level FlightAware
Sun 05:32:00 PM 39.1958 -89.7880 218° Southwest  Level FlightAware
Sun 05:33:00 PM 39.1059 -89.8775 218° Southwest  Level FlightAware
Sun 05:34:00 PM 39.0211 -89.9747 223° Southwest  Level FlightAware
Sun 05:35:00 PM 38.9409 -90.0781 226° Southwest  Level FlightAware
Sun 05:36:00 PM 38.8617 -90.1826 226° Southwest  Level FlightAware
Sun 05:37:00 PM 38.7823 -90.2869 226° Southwest  Level FlightAware
Sun 05:38:00 PM 38.7029 -90.3909 226° Southwest  Level FlightAware
Sun 05:39:00 PM 38.6233 -90.4947 226° Southwest  Level FlightAware
Sun 05:40:00 PM 38.5437 -90.5983 226° Southwest  Level FlightAware
Sun 05:41:00 PM 38.4655 -90.7036 227° Southwest  Level FlightAware
Sun 05:42:00 PM 38.3880 -90.8096 227° Southwest  Level FlightAware
Sun 05:43:00 PM 38.3104 -90.9154 227° Southwest  Level FlightAware
Sun 05:44:00 PM 38.2328 -91.0210 227° Southwest  Level FlightAware
Sun 05:45:00 PM 38.1550 -91.1263 227° Southwest  Level FlightAware
Sun 05:46:00 PM 38.0772 -91.2314 227° Southwest  Level FlightAware
Sun 05:47:00 PM 37.9992 -91.3363 227° Southwest  Level FlightAware
Sun 05:48:00 PM 37.9212 -91.4410 227° Southwest  Level FlightAware
Sun 05:49:00 PM 37.8431 -91.5454 227° Southwest  Level FlightAware
Sun 05:50:00 PM 37.7649 -91.6496 227° Southwest  Level FlightAware
Sun 05:51:00 PM 37.6865 -91.7536 226° Southwest  Level FlightAware
Sun 05:52:00 PM 37.6081 -91.8574 226° Southwest  Level FlightAware
Sun 05:53:00 PM 37.5297 -91.9610 226° Southwest  Level FlightAware
Sun 05:54:00 PM 37.4464 -92.0581 221° Southwest  Level FlightAware
Sun 05:55:00 PM 37.3602 -92.1513 221° Southwest  Level FlightAware
Sun 05:56:00 PM 37.2740 -92.2442 221° Southwest  Level FlightAware
Sun 05:57:00 PM 37.1877 -92.3370 221° Southwest  Level FlightAware
Sun 05:58:00 PM 37.1013 -92.4295 221° Southwest  Level FlightAware
Sun 05:59:00 PM 37.0149 -92.5218 220° Southwest  Level FlightAware
Sun 06:00:00 PM 36.9284 -92.6139 220° Southwest  Level FlightAware
Sun 06:01:00 PM 36.8418 -92.7058 220° Southwest  Level FlightAware
Sun 06:02:00 PM 36.7558 -92.7985 221° Southwest  Level FlightAware
Sun 06:03:00 PM 36.6704 -92.8919 221° Southwest  Level FlightAware
Sun 06:04:00 PM 36.5850 -92.9851 221° Southwest  Level FlightAware
Sun 06:05:00 PM 36.4994 -93.0781 221° Southwest  Level FlightAware
Sun 06:06:00 PM 36.4138 -93.1709 221° Southwest  Level FlightAware
Sun 06:07:00 PM 36.3282 -93.2635 221° Southwest  Level FlightAware
Sun 06:08:00 PM 36.2424 -93.3559 221° Southwest  Level FlightAware
Sun 06:09:00 PM 36.1566 -93.4481 221° Southwest  Level FlightAware
Sun 06:10:00 PM 36.0707 -93.5401 221° Southwest  Level FlightAware
Sun 06:11:00 PM 35.9848 -93.6319 221° Southwest  Level FlightAware
Sun 06:12:00 PM 35.8988 -93.7235 221° Southwest  Level FlightAware
Sun 06:13:00 PM 35.8127 -93.8149 221° Southwest  Level FlightAware
Sun 06:14:00 PM 35.7265 -93.9061 221° Southwest  Level FlightAware
Sun 06:15:00 PM 35.6403 -93.9971 221° Southwest  Level FlightAware
Sun 06:16:00 PM 35.5540 -94.0879 221° Southwest  Level FlightAware
Sun 06:17:00 PM 35.4676 -94.1785 221° Southwest  Level FlightAware
Sun 06:18:00 PM 35.3812 -94.2690 221° Southwest  Level FlightAware
Sun 06:19:00 PM 35.2948 -94.3595 221° Southwest  Level FlightAware
Sun 06:20:00 PM 35.2085 -94.4498 221° Southwest  Level FlightAware
Sun 06:21:00 PM 35.1220 -94.5399 220° Southwest  Level FlightAware
Sun 06:22:00 PM 35.0355 -94.6298 220° Southwest  Level FlightAware
Sun 06:23:00 PM 34.9523 -94.7240 225° Southwest  Level FlightAware
Sun 06:24:00 PM 34.8713 -94.8212 225° Southwest  Level FlightAware
Sun 06:25:00 PM 34.7868 -94.9133 219° Southwest  Level FlightAware
Sun 06:26:00 PM 34.6990 -95.0010 219° Southwest  Level FlightAware
Sun 06:27:00 PM 34.6113 -95.0887 219° Southwest  Level FlightAware
Sun 06:28:00 PM 34.5236 -95.1764 220° Southwest  Level FlightAware
Sun 06:29:00 PM 34.4466 -95.2701 220° Southwest  Level FlightAware
Sun 06:30:00 PM 34.3590 -95.3578 220° Southwest  Level FlightAware
Sun 06:31:00 PM 34.2722 -95.4464 224° Southwest  Level FlightAware
Sun 06:32:00 PM 34.1904 -95.5417 224° Southwest  Level FlightAware
Sun 06:33:00 PM 34.1057 -95.6331 222° Southwest  Level FlightAware
Sun 06:34:00 PM 34.0206 -95.7239 221° Southwest  Level FlightAware
Sun 06:35:00 PM 33.9354 -95.8145 221° Southwest  Level FlightAware
Sun 06:36:00 PM 33.8481 -95.9020 220° Southwest  Level FlightAware
Sun 06:37:00 PM 33.7609 -95.9895 220° Southwest  Level FlightAware
Sun 06:38:00 PM 33.6735 -96.0768 220° Southwest  Level FlightAware
Sun 06:39:00 PM 33.5875 -96.1656 226° Southwest  Level FlightAware
Sun 06:40:00 PM 33.5062 -96.2605 220° Southwest  Level FlightAware
Sun 06:41:00 PM 33.4190 -96.3478 220° Southwest  Level FlightAware
Sun 06:42:00 PM 33.3482 -96.4518 220° Southwest  Level FlightAware
Sun 06:43:00 PM 33.2626 -96.5409 224° Southwest  Level FlightAware
Sun 06:44:00 PM 33.1811 -96.6355 220° Southwest  Level FlightAware
Sun 06:45:00 PM 33.0985 -96.7282 227° Southwest  Level FlightAware
Sun 06:46:00 PM 33.0212 -96.8275 227° Southwest  Level FlightAware
Sun 06:47:00 PM 32.9481 -96.9309 234° Southwest  Level FlightAware
Sun 06:48:00 PM 32.8833 -97.0333 232° Southwest  Level FlightAware
Sun 06:49:00 PM 32.8968 -97.0380 232° Southwest  Level Estimated
Sun 06:50:00 PM 32.8968 -97.0380 232° Southwest  Level Estimated
Sun 06:51:00 PM 32.8968 -97.0380 232° Southwest  Level Estimated
Sun 06:52:00 PM 32.8968 -97.0380 232° Southwest  Level Estimated
Sun 06:53:00 PM 32.8968 -97.0380 232° Southwest  Level Estimated
Sun 06:54:00 PM 32.8968 -97.0380 232° Southwest  Level Estimated
Sun 06:55:00 PM 32.8968 -97.0380 232° Southwest  Level Estimated
Sun 06:56:00 PM 32.8968 -97.0380 232° Southwest  Level Estimated
Sun 06:57:00 PM 32.8968 -97.0380 232° Southwest  Level Estimated
Sun 06:58:00 PM 32.8968 -97.0380 232° Southwest  Level Estimated
Sun 06:59:00 PM 32.8968 -97.0380 232° Southwest  Level Estimated
Sun 07:00:00 PM 32.8968 -97.0380 232° Southwest  Level Estimated

Login

Don't have an account? Register now (free) for customized features, flight alerts, and more!